Details From NZAA - Auckland International
To NZWN - Wellington Intl
Flight Number -
Tags decoded
Created
Modified
Stats Distance 259 nm / 480 km
Max Altitude 0 ft / 0 m
Waypoints 2
Social Downloads 15
Likes 0
Share VATSIM

Download

Looking for another format? Having issues loading an existing format? Contact us
Advertisement - Login to hide

Notes

Requested: NZAA N/A NZWN Unmatched points: N/A

Route

NZAA NZWN

ID Type Via Altitude (ft/m) Position (lat/lon) Dist (leg/tot) Name
O NZAA APT - 0 / 0 -37.01079 / 174.78733 - / 0 nm Auckland International
O NZWN APT - 0 / 0 -41.32684 / 174.80684 259 / 259 nm Wellington Intl

Altitude Profile

Advertisement - Login to hide

Weather


0- 5 10 15 20 25 30 35+ Temperature / °C

Clouds and Precipitation
Forecast for 2018-11-17 00:00 UTC. Updated 3 hours ago

Ground ~20,000 ft ~40,000 ft Winds

NZAA

Details ICAO NZAA (AKL)
Name Auckland International Airport
Region New Zealand and Antarctica
Timezone Pacific/Auckland (UTC+13.0)
Stats Elevation 20 ft / 6 m (AMSL)
Location -37.008100° 174.792000°
Runways 1
Magnetic Variation 19.882° E

METAR

NZAA 170000Z AUTO 22007KT 9999 BKN075/// 20/14 Q1016 NOSIG

Decode

TAF

TAF NZAA 162307Z 1700/1800 22010KT 9999 SCT040 BECMG 1706/1708 VRB02KT

Decode

Departure Runways

ID Width Length Bearing (true/mag) Surface Threshold Overrun Markings Lighting
05R 151 ft / 46 m 11,609 ft / 3,539 m 70.97° / 51.08° CONCRETE 820 ft / 250 m 0 ft / 0 m PREC-APP CENTERLINE EDGE THRESHOLD CALVERT REIL-OMNI
23L 151 ft / 46 m 11,609 ft / 3,539 m 250.94° / 231.06° CONCRETE 0 ft / 0 m 131 ft / 40 m PREC-APP CENTERLINE EDGE THRESHOLD CALVERT REIL-OMNI

NZWN

Details ICAO NZWN (WLG)
Name Wellington Intl
Region New Zealand and Antarctica
Timezone Pacific/Auckland (UTC+13.0)
Stats Elevation 41 ft / 12 m (AMSL)
Location -41.326700° 174.807000°
Runways 1
Magnetic Variation 22.647° E

METAR

NZWN 170000Z AUTO 35016KT 9999 BKN021/// BKN028/// 18/13 Q1014 NOSIG

Decode

TAF

TAF NZWN 162307Z 1700/1800 36018G30KT 9999 BKN020 TEMPO 1716/1720 6000 RA BKN012

Decode

Destination Runways

ID Width Length Bearing (true/mag) Surface Threshold Overrun Markings Lighting
16 131 ft / 40 m 6,735 ft / 2,053 m 182.88° / 160.24° ASPHALT 427 ft / 130 m 62 ft / 19 m PREC-APP CENTERLINE EDGE THRESHOLD RAIL TDZ REIL-UNI
34 131 ft / 40 m 6,735 ft / 2,053 m 2.88° / 340.24° ASPHALT 348 ft / 106 m 161 ft / 49 m PREC-APP CENTERLINE EDGE THRESHOLD RAIL TDZ REIL-UNI

Approach Navaids

Runway Type Ident Frequency Range Bearing (true/mag) Slope Elevation
16 DME IEB 110.30 MHz 18 nm / 33 km - - 26 ft / 8 m (AMSL)
16 GS IEB 110.30 MHz 18 nm / 33 km 184.06° / 161.42 ° 3.00° 26 ft / 8 m (AMSL)
16 LOC-ILS IEB 110.30 MHz 18 nm / 33 km 182.84° / 160.20 ° - 20 ft / 6 m (AMSL)
34 LOC-ILS IMP 109.90 MHz 18 nm / 33 km 2.75° / 340.11 ° - 20 ft / 6 m (AMSL)
34 GS IMP 109.90 MHz 18 nm / 33 km 3.00° / 340.35 ° 3.00° 6 ft / 2 m (AMSL)
34 DME IMP 109.90 MHz 18 nm / 33 km - - 7 ft / 2 m (AMSL)

Popular Alternatives